Time;durP1;ratioP1;P1;durP2;ratioP2;P2;SDS_P1;SDS_P2;PMS_P1;PMS_P2;Temp;Humidity;BMP_temperature;BMP_pressure;BME280_temperature;BME280_humidity;BME280_pressure;Samples;Min_cycle;Max_cycle;Signal;HPM_P1;HPM_P2
2021/08/02 00:01:59;;;;;;;18.13;13.23;;;;;;;-140.05;100.00;61859.38;5029746;28;20280;-68
2021/08/02 00:04:37;;;;;;;25.07;13.13;;;;;;;-140.05;100.00;61859.38;5028727;28;20200;-70
2021/08/02 00:07:04;;;;;;;25.70;13.70;;;;;;;-140.05;100.00;61859.38;5018954;28;20572;-68
2021/08/02 00:09:36;;;;;;;20.90;13.13;;;;;;;-140.05;100.00;61859.38;5015847;28;20220;-69
2021/08/02 00:12:16;;;;;;;23.50;12.50;;;;;;;-140.05;100.00;61859.38;5029866;28;20260;-68
2021/08/02 00:14:44;;;;;;;20.17;14.07;;;;;;;-140.05;100.00;61859.38;5027633;28;20232;-69
2021/08/02 00:17:11;;;;;;;21.67;12.37;;;;;;;-140.05;100.00;61859.38;5017880;28;20200;-68
2021/08/02 00:19:38;;;;;;;19.73;13.67;;;;;;;-140.05;100.00;61859.38;5029322;28;20599;-71
2021/08/02 00:22:05;;;;;;;21.77;12.77;;;;;;;-140.05;100.00;61859.38;5032852;28;20581;-68
2021/08/02 00:24:33;;;;;;;18.93;13.30;;;;;;;-140.05;100.00;61859.38;5033491;28;20719;-69
2021/08/02 00:27:00;;;;;;;22.37;13.57;;;;;;;-140.05;100.00;61859.38;5028448;28;20715;-69
2021/08/02 00:29:29;;;;;;;24.70;12.27;;;;;;;-140.05;100.00;61859.38;5024607;28;20201;-69
2021/08/02 00:31:56;;;;;;;17.20;13.03;;;;;;;-140.05;100.00;61859.38;5019581;28;20622;-69
2021/08/02 00:34:23;;;;;;;24.27;13.23;;;;;;;-140.05;100.00;61859.38;5022814;28;20614;-71
2021/08/02 00:36:59;;;;;;;17.70;13.13;;;;;;;-140.05;100.00;61859.38;5015036;28;20205;-70
2021/08/02 00:39:51;;;;;;;16.00;13.07;;;;;;;-140.05;100.00;61859.38;5033455;28;20199;-68
2021/08/02 00:42:50;;;;;;;20.97;12.77;;;;;;;-140.05;100.00;61859.38;5019107;28;20695;-68
2021/08/02 00:45:20;;;;;;;19.60;13.20;;;;;;;-140.05;100.00;61859.38;5033015;28;20266;-70
2021/08/02 00:48:02;;;;;;;20.43;13.10;;;;;;;-140.05;100.00;61859.38;5031796;28;20189;-68
2021/08/02 00:50:38;;;;;;;17.90;12.63;;;;;;;-140.05;100.00;61859.38;5032861;28;20204;-70
2021/08/02 00:53:32;;;;;;;23.47;12.83;;;;;;;-140.05;100.00;61859.38;5018055;28;20227;-70
2021/08/02 00:56:03;;;;;;;22.83;12.30;;;;;;;-140.05;100.00;61859.38;5031372;28;20292;-69
2021/08/02 00:58:33;;;;;;;24.10;12.87;;;;;;;-140.05;100.00;61859.38;5031994;28;20193;-68
2021/08/02 01:01:03;;;;;;;20.60;12.90;;;;;;;-140.05;100.00;61859.38;5032869;28;20292;-70
2021/08/02 01:03:32;;;;;;;22.03;12.50;;;;;;;-140.05;100.00;61859.38;5031733;28;20277;-69
2021/08/02 01:06:04;;;;;;;20.57;11.70;;;;;;;-140.05;100.00;61859.38;5017430;28;20241;-70
2021/08/02 01:08:37;;;;;;;23.47;12.07;;;;;;;-140.05;100.00;61859.38;5025293;28;20212;-69
2021/08/02 01:11:11;;;;;;;19.30;10.07;;;;;;;-140.05;100.00;61859.38;5025515;28;20296;-68
2021/08/02 01:13:42;;;;;;;25.07;9.90;;;;;;;-140.05;100.00;61859.38;5011540;28;20659;-69
2021/08/02 01:16:10;;;;;;;27.80;9.90;;;;;;;-140.05;100.00;61859.38;5026150;28;20295;-70
2021/08/02 01:18:43;;;;;;;26.40;9.73;;;;;;;-140.05;100.00;61859.38;5032687;28;20217;-70
2021/08/02 01:21:14;;;;;;;27.27;10.07;;;;;;;-140.05;100.00;61859.38;5019810;28;20202;-70
2021/08/02 01:23:47;;;;;;;20.23;9.60;;;;;;;-140.05;100.00;61859.38;5019104;28;20646;-68
2021/08/02 01:26:59;;;;;;;24.73;8.87;;;;;;;-140.05;100.00;61859.38;5018334;28;20202;-69
2021/08/02 01:30:26;;;;;;;19.53;8.50;;;;;;;-140.05;100.00;61859.38;5024996;28;20650;-69
2021/08/02 01:33:02;;;;;;;25.47;9.27;;;;;;;-140.05;100.00;61859.38;4970377;28;20226;-68
2021/08/02 01:35:31;;;;;;;21.07;9.10;;;;;;;-140.05;100.00;61859.38;4951109;28;20226;-69
2021/08/02 01:37:59;;;;;;;23.83;9.80;;;;;;;-140.05;100.00;61859.38;4985652;28;20209;-69
2021/08/02 01:40:27;;;;;;;21.43;10.00;;;;;;;-140.05;100.00;61859.38;5029489;28;20284;-70
2021/08/02 01:42:54;;;;;;;24.20;11.10;;;;;;;-140.05;100.00;61859.38;5032320;28;20339;-69
2021/08/02 01:45:24;;;;;;;16.43;9.83;;;;;;;-140.05;100.00;61859.38;5027972;28;20209;-69
2021/08/02 01:48:17;;;;;;;21.87;11.00;;;;;;;-140.05;100.00;61859.38;5019514;28;20259;-70
2021/08/02 01:50:53;;;;;;;22.13;10.70;;;;;;;-140.05;100.00;61859.38;5026598;28;20205;-70
2021/08/02 01:53:51;;;;;;;25.27;9.67;;;;;;;-140.05;100.00;61859.38;5023414;28;20328;-70
2021/08/02 01:56:25;;;;;;;21.17;9.90;;;;;;;-140.05;100.00;61859.38;5044418;28;20193;-69
2021/08/02 01:59:01;;;;;;;20.03;10.07;;;;;;;-140.05;100.00;61859.38;5036909;28;20215;-68
2021/08/02 02:02:13;;;;;;;20.97;10.33;;;;;;;-140.05;100.00;61859.38;5032582;28;20201;-68
2021/08/02 02:05:09;;;;;;;17.03;10.17;;;;;;;-140.05;100.00;61859.38;5013219;28;20216;-69
2021/08/02 02:07:46;;;;;;;22.30;10.23;;;;;;;-140.05;100.00;61859.38;5032142;28;20209;-68
2021/08/02 02:10:28;;;;;;;21.63;11.43;;;;;;;-140.05;100.00;61859.38;5028196;28;20193;-68
2021/08/02 02:12:58;;;;;;;24.53;9.90;;;;;;;-140.05;100.00;61859.38;5033790;28;20232;-70
2021/08/02 02:15:27;;;;;;;19.80;9.83;;;;;;;-140.05;100.00;61859.38;5019745;28;20205;-70
2021/08/02 02:17:57;;;;;;;20.37;10.30;;;;;;;-140.05;100.00;61859.38;5030273;28;20735;-69
2021/08/02 02:20:25;;;;;;;25.67;10.70;;;;;;;-140.05;100.00;61859.38;5032568;28;20663;-69
2021/08/02 02:22:53;;;;;;;23.00;10.40;;;;;;;-140.05;100.00;61859.38;5034958;28;20232;-70
2021/08/02 02:25:22;;;;;;;23.90;10.63;;;;;;;-140.05;100.00;61859.38;5011738;28;20190;-69
2021/08/02 02:27:50;;;;;;;19.00;10.90;;;;;;;-140.05;100.00;61859.38;5011650;28;20573;-69
2021/08/02 02:30:19;;;;;;;21.13;10.23;;;;;;;-140.05;100.00;61859.38;5009603;28;20206;-70
2021/08/02 02:32:47;;;;;;;24.47;10.57;;;;;;;-140.05;100.00;61859.38;5020492;28;20595;-69
2021/08/02 02:35:34;;;;;;;20.87;9.87;;;;;;;-140.05;100.00;61859.38;5010766;28;20649;-70
2021/08/02 02:38:01;;;;;;;26.63;10.80;;;;;;;-140.05;100.00;61859.38;5011337;28;20206;-70
2021/08/02 02:40:28;;;;;;;23.70;10.17;;;;;;;-140.05;100.00;61859.38;5028937;28;20259;-71
2021/08/02 02:42:56;;;;;;;27.00;10.30;;;;;;;-140.05;100.00;61859.38;5031377;28;20251;-69
2021/08/02 02:45:27;;;;;;;23.40;10.17;;;;;;;-140.05;100.00;61859.38;5015681;28;20598;-69
2021/08/02 02:47:56;;;;;;;29.90;11.50;;;;;;;-140.05;100.00;61859.38;5025886;28;20229;-70
2021/08/02 02:50:25;;;;;;;19.57;10.53;;;;;;;-140.05;100.00;61859.38;5030322;28;20197;-69
2021/08/02 02:52:53;;;;;;;24.17;10.50;;;;;;;-140.05;100.00;61859.38;5012301;28;20711;-69
2021/08/02 02:55:23;;;;;;;27.07;13.07;;;;;;;-140.05;100.00;61859.38;5020629;28;20205;-69
2021/08/02 02:57:52;;;;;;;23.57;13.97;;;;;;;-140.05;100.00;61859.38;5029372;28;20592;-71
2021/08/02 03:00:20;;;;;;;28.00;14.53;;;;;;;-140.05;100.00;61859.38;5029384;28;20213;-70
2021/08/02 03:02:54;;;;;;;26.47;15.73;;;;;;;-140.05;100.00;61859.38;5029307;28;20275;-69
2021/08/02 03:05:23;;;;;;;28.17;15.37;;;;;;;-140.05;100.00;61859.38;5028845;28;20577;-70
2021/08/02 03:07:54;;;;;;;25.63;14.83;;;;;;;-140.05;100.00;61859.38;5026115;28;20228;-68
2021/08/02 03:10:24;;;;;;;27.63;16.40;;;;;;;-140.05;100.00;61859.38;5017958;28;20193;-70
2021/08/02 03:12:52;;;;;;;28.83;15.57;;;;;;;-140.05;100.00;61859.38;5030046;28;20220;-69
2021/08/02 03:15:19;;;;;;;32.97;15.57;;;;;;;-140.05;100.00;61859.38;5010983;28;20289;-70
2021/08/02 03:17:47;;;;;;;25.03;15.67;;;;;;;-140.05;100.00;61859.38;5010332;28;20197;-70
2021/08/02 03:20:15;;;;;;;31.57;17.10;;;;;;;-140.05;100.00;61859.38;5029361;28;20961;-70
2021/08/02 03:22:52;;;;;;;26.63;15.27;;;;;;;-140.05;100.00;61859.38;5030352;28;20208;-70
2021/08/02 03:25:58;;;;;;;33.60;16.20;;;;;;;-140.05;100.00;61859.38;5010647;28;20680;-69
2021/08/02 03:28:46;;;;;;;28.70;14.70;;;;;;;-140.05;100.00;61859.38;5026941;28;20216;-70
2021/08/02 03:31:20;;;;;;;27.97;15.43;;;;;;;-140.05;100.00;61859.38;5030525;28;20209;-70
2021/08/02 03:33:49;;;;;;;28.67;14.87;;;;;;;-140.05;100.00;61859.38;5030372;28;20240;-70
2021/08/02 03:36:17;;;;;;;23.67;13.53;;;;;;;-140.05;100.00;61859.38;5028785;28;20228;-70
2021/08/02 03:38:49;;;;;;;30.50;15.43;;;;;;;-140.05;100.00;61859.38;5012635;28;20707;-69
2021/08/02 03:41:19;;;;;;;28.47;15.43;;;;;;;-140.05;100.00;61859.38;5010152;28;20213;-68
2021/08/02 03:43:48;;;;;;;25.47;13.17;;;;;;;-140.05;100.00;61859.38;5012703;28;20240;-68
2021/08/02 03:46:17;;;;;;;29.50;15.33;;;;;;;-140.05;100.00;61859.38;5020534;28;20232;-71
2021/08/02 03:48:45;;;;;;;32.27;13.53;;;;;;;-140.05;100.00;61859.38;5022088;28;20212;-68
2021/08/02 03:51:13;;;;;;;30.67;11.73;;;;;;;-140.05;100.00;61859.38;5029260;28;20224;-68
2021/08/02 03:53:45;;;;;;;26.27;12.23;;;;;;;-140.05;100.00;61859.38;5030061;28;20227;-69
2021/08/02 03:56:15;;;;;;;27.20;12.97;;;;;;;-140.05;100.00;61859.38;5015243;28;20204;-69
2021/08/02 03:58:42;;;;;;;31.50;13.10;;;;;;;-140.05;100.00;61859.38;5029391;28;20201;-69
2021/08/02 04:01:10;;;;;;;23.37;11.27;;;;;;;-140.05;100.00;61859.38;5026938;28;20699;-69
2021/08/02 04:03:55;;;;;;;27.33;11.60;;;;;;;-140.05;100.00;61859.38;5027907;28;20239;-67
2021/08/02 04:06:22;;;;;;;28.77;13.97;;;;;;;-140.05;100.00;61859.38;5026809;28;20279;-71
2021/08/02 04:08:49;;;;;;;26.13;12.00;;;;;;;-140.05;100.00;61859.38;5026304;28;20297;-70
2021/08/02 04:11:16;;;;;;;25.53;10.90;;;;;;;-140.05;100.00;61859.38;5028828;28;20196;-71
2021/08/02 04:13:43;;;;;;;22.80;10.77;;;;;;;-140.05;100.00;61859.38;5016237;28;20224;-72
2021/08/02 04:16:10;;;;;;;30.40;11.00;;;;;;;-140.05;100.00;61859.38;5029043;28;20626;-71
2021/08/02 04:18:37;;;;;;;22.53;10.83;;;;;;;-140.05;100.00;61859.38;5028099;28;20717;-70
2021/08/02 04:21:04;;;;;;;24.30;10.07;;;;;;;-140.05;100.00;61859.38;5026387;28;20216;-71
2021/08/02 04:23:31;;;;;;;28.67;10.10;;;;;;;-140.05;100.00;61859.38;5029111;28;20193;-70
2021/08/02 04:25:59;;;;;;;23.67;10.13;;;;;;;-140.05;100.00;61859.38;5029180;28;20254;-71
2021/08/02 04:28:25;;;;;;;22.57;9.23;;;;;;;-140.05;100.00;61859.38;5027457;28;20207;-73
2021/08/02 04:30:53;;;;;;;28.30;10.43;;;;;;;-140.05;100.00;61859.38;5029147;28;20278;-74
2021/08/02 04:33:20;;;;;;;23.07;9.73;;;;;;;-140.05;100.00;61859.38;5031453;28;20227;-72
2021/08/02 04:35:47;;;;;;;29.73;9.87;;;;;;;-140.05;100.00;61859.38;5031788;28;20194;-74
2021/08/02 04:38:13;;;;;;;25.13;9.67;;;;;;;-140.05;100.00;61859.38;5033446;28;20276;-74
2021/08/02 04:40:40;;;;;;;26.00;10.00;;;;;;;-140.05;100.00;61859.38;5030840;28;20209;-72
2021/08/02 04:43:07;;;;;;;28.53;10.00;;;;;;;-140.05;100.00;61859.38;5030801;28;20231;-71
2021/08/02 04:45:34;;;;;;;22.93;10.13;;;;;;;-140.05;100.00;61859.38;5031049;28;20189;-72
2021/08/02 04:48:01;;;;;;;22.50;10.63;;;;;;;-140.05;100.00;61859.38;5029313;28;20734;-72
2021/08/02 04:50:28;;;;;;;31.67;12.53;;;;;;;-140.05;100.00;61859.38;5026604;28;20197;-72
2021/08/02 04:52:56;;;;;;;27.47;12.90;;;;;;;-140.05;100.00;61859.38;5022499;28;20213;-71
2021/08/02 04:55:23;;;;;;;25.97;14.37;;;;;;;-140.05;100.00;61859.38;5028359;28;20773;-73
2021/08/02 04:57:50;;;;;;;30.87;14.67;;;;;;;-140.05;100.00;61859.38;5016952;28;20625;-75
2021/08/02 05:00:17;;;;;;;42.30;15.67;;;;;;;-140.05;100.00;61859.38;5018647;28;20202;-71
2021/08/02 05:02:44;;;;;;;34.47;16.40;;;;;;;-140.05;100.00;61859.38;5023888;28;20203;-70
2021/08/02 05:05:12;;;;;;;49.57;29.60;;;;;;;-140.05;100.00;61859.38;5018657;28;20196;-73
2021/08/02 05:07:39;;;;;;;44.73;29.23;;;;;;;-140.05;100.00;61859.38;5029160;28;20228;-71
2021/08/02 05:10:07;;;;;;;52.17;33.17;;;;;;;-140.05;100.00;61859.38;5014817;28;20198;-74
2021/08/02 05:12:34;;;;;;;30.40;17.80;;;;;;;-140.05;100.00;61859.38;5026666;28;20240;-73
2021/08/02 05:15:09;;;;;;;35.53;17.13;;;;;;;-140.05;100.00;61859.38;5027410;28;20233;-75
2021/08/02 05:17:37;;;;;;;29.10;18.30;;;;;;;-140.05;100.00;61859.38;5026267;28;20208;-74
2021/08/02 05:20:06;;;;;;;32.40;18.30;;;;;;;-140.05;100.00;61859.38;5031918;28;20196;-74
2021/08/02 05:22:34;;;;;;;24.93;16.63;;;;;;;-140.05;100.00;61859.38;5032325;28;20193;-73
2021/08/02 05:25:02;;;;;;;42.90;28.97;;;;;;;-140.05;100.00;61859.38;5019665;28;20193;-72
2021/08/02 05:27:29;;;;;;;75.20;63.10;;;;;;;-140.05;100.00;61859.38;5030084;28;20227;-71
2021/08/02 05:29:56;;;;;;;33.37;17.80;;;;;;;-140.05;100.00;61859.38;5019777;28;20193;-75
2021/08/02 05:32:23;;;;;;;33.20;16.70;;;;;;;-140.05;100.00;61859.38;5030652;28;20213;-76
2021/08/02 05:34:50;;;;;;;26.87;17.10;;;;;;;-140.05;100.00;61859.38;5020045;28;20208;-74
2021/08/02 05:37:17;;;;;;;33.93;16.53;;;;;;;-140.05;100.00;61859.38;5032780;28;20232;-75
2021/08/02 05:39:44;;;;;;;27.70;15.83;;;;;;;-140.05;100.00;61859.38;5032620;28;20224;-75
2021/08/02 05:42:11;;;;;;;32.17;17.10;;;;;;;-140.05;100.00;61859.38;5019695;28;20199;-74
2021/08/02 05:44:38;;;;;;;26.70;14.40;;;;;;;-140.05;100.00;61859.38;5032038;28;20216;-75
2021/08/02 05:47:07;;;;;;;29.67;15.10;;;;;;;-140.05;100.00;61859.38;5032348;28;20617;-75
2021/08/02 05:49:35;;;;;;;33.90;14.83;;;;;;;-140.05;100.00;61859.38;5032336;28;20223;-75
2021/08/02 05:52:02;;;;;;;29.60;15.60;;;;;;;-140.05;100.00;61859.38;5032146;28;20197;-75
2021/08/02 05:54:29;;;;;;;26.33;14.40;;;;;;;-140.05;100.00;61859.38;5016717;28;20205;-75
2021/08/02 05:56:55;;;;;;;29.80;14.97;;;;;;;-140.05;100.00;61859.38;5032115;28;20292;-75
2021/08/02 05:59:40;;;;;;;26.33;14.00;;;;;;;-140.05;100.00;61859.38;5028067;28;20193;-76
2021/08/02 06:02:07;;;;;;;25.87;14.53;;;;;;;-140.05;100.00;61859.38;5022434;28;20213;-76
2021/08/02 06:04:34;;;;;;;33.20;14.47;;;;;;;-140.05;100.00;61859.38;5031987;28;20209;-77
2021/08/02 06:07:01;;;;;;;27.10;13.90;;;;;;;-140.05;100.00;61859.38;5032599;28;20719;-77
2021/08/02 06:09:29;;;;;;;30.43;14.10;;;;;;;-140.05;100.00;61859.38;5018151;28;20205;-74
2021/08/02 06:11:56;;;;;;;33.57;13.57;;;;;;;-140.05;100.00;61859.38;5031448;28;20255;-76
2021/08/02 06:14:24;;;;;;;25.67;13.53;;;;;;;-140.05;100.00;61859.38;5032397;28;20233;-75
2021/08/02 06:16:51;;;;;;;31.10;13.17;;;;;;;-140.05;100.00;61859.38;5031358;28;20189;-75
2021/08/02 06:19:19;;;;;;;25.90;12.50;;;;;;;-140.05;100.00;61859.38;5031500;28;20682;-75
2021/08/02 06:21:46;;;;;;;29.07;12.63;;;;;;;-140.05;100.00;61859.38;5027877;28;20230;-75
2021/08/02 06:24:13;;;;;;;26.67;12.83;;;;;;;-140.05;100.00;61859.38;5022038;28;20674;-75
2021/08/02 06:26:39;;;;;;;24.73;12.53;;;;;;;-140.05;100.00;61859.38;5030914;28;20228;-76
2021/08/02 06:29:06;;;;;;;24.83;12.27;;;;;;;-140.05;100.00;61859.38;5034513;28;20768;-75
2021/08/02 06:31:33;;;;;;;25.43;12.57;;;;;;;-140.05;100.00;61859.38;5032049;28;20574;-74
2021/08/02 06:34:00;;;;;;;24.33;13.10;;;;;;;-140.05;100.00;61859.38;5012554;28;20272;-75
2021/08/02 06:36:27;;;;;;;24.63;11.97;;;;;;;-140.05;100.00;61859.38;5022722;28;20283;-76
2021/08/02 06:38:54;;;;;;;26.87;12.33;;;;;;;-140.05;100.00;61859.38;5018806;28;20208;-75
2021/08/02 06:41:21;;;;;;;23.00;12.00;;;;;;;-140.05;100.00;61859.38;5036046;28;20198;-76
2021/08/02 06:43:48;;;;;;;21.83;11.80;;;;;;;-140.05;100.00;61859.38;5017674;28;20257;-76
2021/08/02 06:46:15;;;;;;;19.10;11.30;;;;;;;-140.05;100.00;61859.38;5025210;28;20184;-76
2021/08/02 06:48:42;;;;;;;25.27;11.07;;;;;;;-140.05;100.00;61859.38;5036366;28;20205;-76
2021/08/02 06:51:11;;;;;;;25.50;11.20;;;;;;;-140.05;100.00;61859.38;5031188;28;20186;-75
2021/08/02 06:53:39;;;;;;;20.43;11.13;;;;;;;-140.05;100.00;61859.38;5026006;28;20279;-75
2021/08/02 06:56:06;;;;;;;27.57;12.63;;;;;;;-140.05;100.00;61859.38;5035402;28;20197;-75
2021/08/02 06:58:33;;;;;;;28.00;11.80;;;;;;;-140.05;100.00;61859.38;5025308;28;20248;-75
2021/08/02 07:01:01;;;;;;;25.20;11.17;;;;;;;-140.05;100.00;61859.38;5024958;28;20248;-76
2021/08/02 07:03:28;;;;;;;28.37;11.30;;;;;;;-140.05;100.00;61859.38;5024359;28;20193;-74
2021/08/02 07:05:56;;;;;;;26.47;11.00;;;;;;;-140.05;100.00;61859.38;5023782;28;20193;-75
2021/08/02 07:08:23;;;;;;;24.50;10.53;;;;;;;-140.05;100.00;61859.38;5016868;28;20220;-76
2021/08/02 07:10:50;;;;;;;26.43;10.30;;;;;;;-140.05;100.00;61859.38;5030659;28;20206;-76
2021/08/02 07:13:17;;;;;;;29.47;11.40;;;;;;;-140.05;100.00;61859.38;5016765;28;20232;-76
2021/08/02 07:15:44;;;;;;;20.30;11.13;;;;;;;-140.05;100.00;61859.38;5020542;28;20288;-75
2021/08/02 07:18:11;;;;;;;30.97;11.47;;;;;;;-140.05;100.00;61859.38;5027739;28;20229;-75
2021/08/02 07:20:39;;;;;;;22.87;11.83;;;;;;;-140.05;100.00;61859.38;5030986;28;20203;-75
2021/08/02 07:23:07;;;;;;;25.57;10.93;;;;;;;-140.05;100.00;61859.38;5016971;28;20661;-74
2021/08/02 07:25:34;;;;;;;23.10;11.43;;;;;;;-140.05;100.00;61859.38;5029859;28;20203;-75
2021/08/02 07:28:01;;;;;;;26.20;11.80;;;;;;;-140.05;100.00;61859.38;5030935;28;20259;-76
2021/08/02 07:30:29;;;;;;;25.83;11.53;;;;;;;-140.05;100.00;61859.38;5013834;28;20200;-76
2021/08/02 07:32:57;;;;;;;26.33;11.70;;;;;;;-140.05;100.00;61859.38;5031105;28;20487;-76
2021/08/02 07:35:24;;;;;;;27.67;10.37;;;;;;;-140.05;100.00;61859.38;5029645;28;20197;-75
2021/08/02 07:37:51;;;;;;;26.30;10.60;;;;;;;-140.05;100.00;61859.38;5030460;28;20199;-76
2021/08/02 07:40:18;;;;;;;24.77;10.23;;;;;;;-140.05;100.00;61859.38;5027742;28;20196;-76
2021/08/02 07:42:45;;;;;;;21.77;10.37;;;;;;;-140.05;100.00;61859.38;5018910;28;20662;-75
2021/08/02 07:45:12;;;;;;;28.27;11.67;;;;;;;-140.05;100.00;61859.38;5015014;28;20226;-75
2021/08/02 07:47:40;;;;;;;26.07;11.07;;;;;;;-140.05;100.00;61859.38;5017429;28;20568;-75
2021/08/02 07:50:10;;;;;;;28.63;10.33;;;;;;;-140.05;100.00;61859.38;5030478;28;20233;-75
2021/08/02 07:52:37;;;;;;;24.73;10.53;;;;;;;-140.05;100.00;61859.38;5028313;28;20201;-79
2021/08/02 07:55:06;;;;;;;22.97;9.60;;;;;;;-140.05;100.00;61859.38;5018055;28;20251;-75
2021/08/02 07:57:33;;;;;;;27.73;10.63;;;;;;;-140.05;100.00;61859.38;5030056;28;20290;-74
2021/08/02 08:00:05;;;;;;;25.87;9.07;;;;;;;-140.05;100.00;61859.38;5029900;28;20208;-76
2021/08/02 08:02:35;;;;;;;27.87;9.93;;;;;;;-140.05;100.00;61859.38;5030502;28;20255;-76
2021/08/02 08:05:04;;;;;;;21.57;9.13;;;;;;;-140.05;100.00;61859.38;5015774;28;20233;-76
2021/08/02 08:07:51;;;;;;;25.47;9.93;;;;;;;-140.05;100.00;61859.38;5018226;28;20747;-75
2021/08/02 08:10:22;;;;;;;26.87;9.17;;;;;;;-140.05;100.00;61859.38;5010136;28;20198;-75
2021/08/02 08:12:50;;;;;;;23.17;9.10;;;;;;;-140.05;100.00;61859.38;5024418;28;20259;-76
2021/08/02 08:15:19;;;;;;;24.70;9.10;;;;;;;-140.05;100.00;61859.38;5016037;28;20247;-76
2021/08/02 08:17:47;;;;;;;30.00;9.30;;;;;;;-140.05;100.00;61859.38;5030154;28;20204;-77
2021/08/02 08:20:19;;;;;;;24.90;9.67;;;;;;;-140.05;100.00;61859.38;5029835;28;20193;-76
2021/08/02 08:22:46;;;;;;;27.80;9.73;;;;;;;-140.05;100.00;61859.38;5029601;28;20228;-76
2021/08/02 08:25:13;;;;;;;25.73;9.90;;;;;;;-140.05;100.00;61859.38;5016574;28;20193;-76
2021/08/02 08:27:40;;;;;;;30.33;9.47;;;;;;;-140.05;100.00;61859.38;5020543;28;20198;-75
2021/08/02 08:30:09;;;;;;;24.50;9.70;;;;;;;-140.05;100.00;61859.38;5026525;28;20285;-75
2021/08/02 08:32:36;;;;;;;20.93;8.67;;;;;;;-140.05;100.00;61859.38;5030174;28;20196;-76
2021/08/02 08:35:05;;;;;;;27.00;9.47;;;;;;;-140.05;100.00;61859.38;5029125;28;20229;-76
2021/08/02 08:37:32;;;;;;;29.30;9.27;;;;;;;-140.05;100.00;61859.38;5022765;28;20289;-76
2021/08/02 08:39:59;;;;;;;24.77;9.63;;;;;;;-140.05;100.00;61859.38;5023363;28;20219;-76
2021/08/02 08:42:26;;;;;;;25.17;9.07;;;;;;;-140.05;100.00;61859.38;5031708;28;20697;-74
2021/08/02 08:44:53;;;;;;;22.00;8.97;;;;;;;-140.05;100.00;61859.38;5021553;28;21011;-75
2021/08/02 08:47:20;;;;;;;24.87;9.17;;;;;;;-140.05;100.00;61859.38;5032028;28;20195;-75
2021/08/02 08:49:47;;;;;;;32.43;9.67;;;;;;;-140.05;100.00;61859.38;5033468;28;20203;-75
2021/08/02 08:52:14;;;;;;;30.73;9.93;;;;;;;-140.05;100.00;61859.38;5033826;28;20208;-75
2021/08/02 08:54:42;;;;;;;31.40;9.87;;;;;;;-140.05;100.00;61859.38;5018681;28;20225;-76
2021/08/02 08:57:13;;;;;;;28.23;9.33;;;;;;;-140.05;100.00;61859.38;5033731;28;20580;-75
2021/08/02 08:59:46;;;;;;;22.30;8.47;;;;;;;-140.05;100.00;61859.38;5033067;28;20288;-75
2021/08/02 09:02:13;;;;;;;27.10;8.60;;;;;;;-140.05;100.00;61859.38;5033350;28;20691;-75
2021/08/02 09:04:50;;;;;;;24.70;8.50;;;;;;;-140.05;100.00;61859.38;5016164;28;20293;-76
2021/08/02 09:07:17;;;;;;;26.13;8.33;;;;;;;-140.05;100.00;61859.38;5024100;28;20287;-74
2021/08/02 09:09:44;;;;;;;21.23;7.60;;;;;;;-140.05;100.00;61859.38;5033087;28;20201;-74
2021/08/02 09:12:19;;;;;;;24.63;7.93;;;;;;;-140.05;100.00;61859.38;5033854;28;20629;-76
2021/08/02 09:14:50;;;;;;;26.93;8.10;;;;;;;-140.05;100.00;61859.38;5033088;28;20315;-75
2021/08/02 09:17:33;;;;;;;24.60;7.87;;;;;;;-140.05;100.00;61859.38;5033856;28;20216;-75
2021/08/02 09:20:17;;;;;;;25.37;9.00;;;;;;;-140.05;100.00;61859.38;5032808;28;20656;-75
2021/08/02 09:22:45;;;;;;;27.80;8.73;;;;;;;-140.05;100.00;61859.38;5032835;28;20201;-75
2021/08/02 09:25:20;;;;;;;27.27;8.53;;;;;;;-140.05;100.00;61859.38;5033752;28;20212;-75
2021/08/02 09:27:49;;;;;;;25.87;7.90;;;;;;;-140.05;100.00;61859.38;5034474;28;20200;-76
2021/08/02 09:30:25;;;;;;;23.47;7.97;;;;;;;-140.05;100.00;61859.38;5036617;28;20213;-76
2021/08/02 09:33:03;;;;;;;25.03;8.80;;;;;;;-140.05;100.00;61859.38;5034213;28;20279;-76
2021/08/02 09:35:40;;;;;;;20.53;8.00;;;;;;;-140.05;100.00;61859.38;5033138;28;20220;-76
2021/08/02 09:38:13;;;;;;;29.90;8.13;;;;;;;-140.05;100.00;61859.38;5034123;28;20567;-75
2021/08/02 09:40:44;;;;;;;21.83;6.73;;;;;;;-140.05;100.00;61859.38;5030405;28;20636;-75
2021/08/02 09:43:22;;;;;;;26.83;8.17;;;;;;;-140.05;100.00;61859.38;5025401;28;20315;-75
2021/08/02 09:46:08;;;;;;;26.27;6.80;;;;;;;-140.05;100.00;61859.38;5012372;28;20202;-75
2021/08/02 09:48:37;;;;;;;30.90;6.40;;;;;;;-140.05;100.00;61859.38;5027047;28;20193;-77
2021/08/02 09:51:18;;;;;;;27.83;6.07;;;;;;;-140.05;100.00;61859.38;5031368;28;20802;-74
2021/08/02 09:53:51;;;;;;;28.87;6.63;;;;;;;-140.05;100.00;61859.38;5031851;28;20674;-74
2021/08/02 09:56:23;;;;;;;30.43;5.93;;;;;;;-140.05;100.00;61859.38;5027632;28;20276;-73
2021/08/02 09:59:06;;;;;;;30.43;6.13;;;;;;;-140.05;100.00;61859.38;5012571;28;20307;-72
2021/08/02 10:01:33;;;;;;;25.83;6.53;;;;;;;-140.05;100.00;61859.38;5025834;28;20204;-79
2021/08/02 10:04:21;;;;;;;24.43;5.87;;;;;;;-140.05;100.00;61859.38;5029873;28;20192;-78
2021/08/02 10:06:49;;;;;;;23.03;5.40;;;;;;;-140.05;100.00;61859.38;5029003;28;20281;-71
2021/08/02 10:09:16;;;;;;;30.57;7.40;;;;;;;-140.05;100.00;61859.38;5026171;28;20207;-74
2021/08/02 10:11:43;;;;;;;29.67;8.10;;;;;;;-140.05;100.00;61859.38;5031259;28;20668;-74
2021/08/02 10:14:13;;;;;;;26.47;8.03;;;;;;;-140.05;100.00;61859.38;5032005;28;20305;-74
2021/08/02 10:16:44;;;;;;;22.03;8.30;;;;;;;-140.05;100.00;61859.38;5031409;28;20201;-73
2021/08/02 10:19:13;;;;;;;27.60;7.83;;;;;;;-140.05;100.00;61859.38;5031855;28;20629;-73
2021/08/02 10:21:46;;;;;;;30.90;7.93;;;;;;;-140.05;100.00;61859.38;5031007;28;20204;-74
2021/08/02 10:24:16;;;;;;;29.33;8.87;;;;;;;-140.05;100.00;61859.38;5022214;28;20255;-73
2021/08/02 10:26:57;;;;;;;20.03;8.40;;;;;;;-140.05;100.00;61859.38;5027767;28;20664;-73
2021/08/02 10:29:41;;;;;;;26.87;7.30;;;;;;;-140.05;100.00;61859.38;5021335;28;20194;-73
2021/08/02 10:32:28;;;;;;;21.77;7.00;;;;;;;-140.05;100.00;61859.38;5011870;28;20194;-75
2021/08/02 10:34:57;;;;;;;19.57;8.07;;;;;;;-140.05;100.00;61859.38;5011310;28;20229;-74
2021/08/02 10:37:35;;;;;;;23.47;7.73;;;;;;;-140.05;100.00;61859.38;5025508;28;20178;-74
2021/08/02 10:40:12;;;;;;;27.57;8.30;;;;;;;-140.05;100.00;61859.38;5024849;28;20201;-73
2021/08/02 10:42:50;;;;;;;24.13;7.20;;;;;;;-140.05;100.00;61859.38;5019146;28;20276;-74
2021/08/02 10:45:31;;;;;;;23.47;7.70;;;;;;;-140.05;100.00;61859.38;5016943;28;20201;-75
2021/08/02 10:48:00;;;;;;;26.53;7.27;;;;;;;-140.05;100.00;61859.38;5027907;28;20292;-75
2021/08/02 10:50:31;;;;;;;30.03;7.80;;;;;;;-140.05;100.00;61859.38;5030870;28;20193;-72
2021/08/02 10:52:58;;;;;;;20.40;7.10;;;;;;;-140.05;100.00;61859.38;5026357;28;20197;-73
2021/08/02 10:55:29;;;;;;;24.10;7.77;;;;;;;-140.05;100.00;61859.38;5021514;28;20239;-75
2021/08/02 10:57:59;;;;;;;27.67;7.20;;;;;;;-140.05;100.00;61859.38;5031126;28;20223;-74
2021/08/02 11:00:28;;;;;;;29.27;8.30;;;;;;;-140.05;100.00;61859.38;5020784;28;20237;-75
2021/08/02 11:02:57;;;;;;;25.97;6.77;;;;;;;-140.05;100.00;61859.38;5027823;28;20205;-75
2021/08/02 11:05:31;;;;;;;26.30;7.00;;;;;;;-140.05;100.00;61859.38;5022030;28;20198;-74
2021/08/02 11:08:07;;;;;;;31.30;7.97;;;;;;;-140.05;100.00;61859.38;5013165;28;20583;-73
2021/08/02 11:10:34;;;;;;;28.83;7.67;;;;;;;-140.05;100.00;61859.38;5020947;28;20716;-76
2021/08/02 11:13:26;;;;;;;30.60;7.87;;;;;;;-140.05;100.00;61859.38;5029397;28;20190;-76
2021/08/02 11:15:53;;;;;;;25.47;6.90;;;;;;;-140.05;100.00;61859.38;5030513;28;20678;-74